Time;durP1;ratioP1;P1;durP2;ratioP2;P2;SDS_P1;SDS_P2;PMS_P1;PMS_P2;Temp;Humidity;BMP_temperature;BMP_pressure;BME280_temperature;BME280_humidity;BME280_pressure;Samples;Min_cycle;Max_cycle;Signal;HPM_P1;HPM_P2
2022/02/10 00:07:17;;;;;;;15.13;7.13;;;22.10;52.80;;;;;;6245521;23;20776;-85
2022/02/10 00:15:51;;;;;;;16.10;7.80;;;22.10;52.90;;;;;;6235901;23;20376;-84
2022/02/10 00:18:56;;;;;;;11.43;7.17;;;22.10;52.80;;;;;;6235061;23;20394;-84
2022/02/10 00:21:53;;;;;;;13.73;7.20;;;22.10;52.90;;;;;;6234313;23;20840;-84
2022/02/10 00:25:05;;;;;;;11.47;8.40;;;22.10;52.90;;;;;;6232825;23;20402;-84
2022/02/10 00:35:54;;;;;;;11.60;7.27;;;22.10;52.90;;;;;;6232725;23;20681;-84
2022/02/10 00:38:35;;;;;;;10.57;6.50;;;22.10;52.80;;;;;;6227729;23;20386;-85
2022/02/10 00:44:26;;;;;;;11.70;6.77;;;22.10;52.80;;;;;;6230264;23;20441;-86
2022/02/10 00:47:07;;;;;;;12.10;6.07;;;22.10;52.80;;;;;;6231245;23;20374;-85
2022/02/10 00:49:38;;;;;;;12.60;7.00;;;22.10;52.90;;;;;;6134368;23;20461;-85
2022/02/10 00:52:14;;;;;;;11.00;6.27;;;22.10;52.80;;;;;;6236934;23;20410;-85
2022/02/10 00:54:42;;;;;;;12.40;7.40;;;22.10;52.80;;;;;;6236072;23;20378;-85
2022/02/10 01:00:47;;;;;;;9.50;6.30;;;22.10;52.90;;;;;;6237973;23;20347;-84
2022/02/10 01:14:17;;;;;;;10.43;6.27;;;22.10;52.80;;;;;;6239359;23;20362;-85
2022/02/10 01:31:01;;;;;;;8.17;5.60;;;22.10;52.80;;;;;;6238193;23;20342;-85
2022/02/10 01:33:31;;;;;;;8.63;5.83;;;22.10;52.80;;;;;;6235447;23;20382;-85
2022/02/10 01:36:30;;;;;;;8.63;5.83;;;22.10;52.90;;;;;;6235986;23;20385;-85
2022/02/10 01:39:04;;;;;;;10.97;5.83;;;22.10;52.90;;;;;;6217498;23;20477;-85
2022/02/10 02:04:09;;;;;;;9.23;5.60;;;22.10;52.90;;;;;;6229638;23;20471;-85
2022/02/10 02:07:06;;;;;;;9.10;6.70;;;22.00;52.90;;;;;;6229319;23;20355;-85
2022/02/10 02:09:42;;;;;;;9.57;4.90;;;22.10;52.90;;;;;;6229011;23;20375;-85
2022/02/10 02:12:21;;;;;;;7.20;5.20;;;22.10;52.90;;;;;;6223530;23;20413;-85
2022/02/10 02:14:48;;;;;;;8.07;5.73;;;22.10;52.90;;;;;;6227533;23;20454;-85
2022/02/10 02:17:19;;;;;;;8.83;5.90;;;22.00;52.80;;;;;;6225895;23;20380;-86
2022/02/10 02:19:48;;;;;;;7.70;5.10;;;22.10;52.90;;;;;;6227775;23;20386;-85
2022/02/10 02:22:24;;;;;;;9.23;5.30;;;22.10;52.90;;;;;;6227069;23;20390;-85
2022/02/10 02:24:51;;;;;;;6.10;4.37;;;22.00;52.80;;;;;;6228523;23;20386;-85
2022/02/10 02:27:20;;;;;;;7.10;5.33;;;22.10;52.90;;;;;;6226679;23;20414;-85
2022/02/10 02:30:06;;;;;;;11.23;4.63;;;22.10;52.80;;;;;;6228878;23;20456;-85
2022/02/10 02:32:51;;;;;;;9.13;5.43;;;22.10;52.80;;;;;;6230446;23;20370;-85
2022/02/10 02:35:41;;;;;;;7.63;5.07;;;22.10;52.80;;;;;;6228642;23;20382;-84
2022/02/10 03:07:24;;;;;;;6.70;4.70;;;22.00;52.90;;;;;;6232359;23;20366;-85
2022/02/10 03:10:20;;;;;;;7.03;5.27;;;22.00;52.90;;;;;;6233037;23;20355;-85
2022/02/10 03:12:58;;;;;;;7.23;5.10;;;22.00;53.00;;;;;;6231835;23;20391;-85
2022/02/10 03:15:45;;;;;;;7.60;4.20;;;22.00;53.00;;;;;;6206090;23;20370;-85
2022/02/10 04:21:34;;;;;;;4.60;3.70;;;22.00;52.80;;;;;;6239479;23;20358;-85
2022/02/10 04:27:30;;;;;;;5.63;3.70;;;22.00;52.80;;;;;;6144516;23;20369;-85
2022/02/10 05:33:49;;;;;;;5.50;3.40;;;21.90;52.80;;;;;;6233249;23;20349;-85
2022/02/10 05:36:21;;;;;;;4.27;3.00;;;21.90;52.90;;;;;;6233474;23;20427;-85
2022/02/10 05:39:08;;;;;;;4.93;3.87;;;21.90;52.90;;;;;;6223145;23;20408;-85
2022/02/10 05:47:20;;;;;;;4.83;3.60;;;21.90;52.90;;;;;;6235235;23;20414;-85
2022/02/10 07:06:42;;;;;;;3.83;2.60;;;22.00;52.90;;;;;;6235198;23;20355;-84
2022/02/10 09:16:09;;;;;;;4.23;2.40;;;22.20;52.80;;;;;;6202709;23;20576;-85
2022/02/10 09:19:21;;;;;;;3.00;2.00;;;22.20;52.70;;;;;;6198141;23;20402;-85
2022/02/10 09:21:59;;;;;;;2.27;2.07;;;22.20;52.70;;;;;;6193086;23;20700;-85
2022/02/10 10:07:36;;;;;;;2.33;2.00;;;22.20;52.70;;;;;;6139882;23;20882;-85
2022/02/10 10:20:16;;;;;;;3.90;2.40;;;22.20;52.80;;;;;;6084574;23;20381;-84
2022/02/10 10:26:06;;;;;;;2.60;1.90;;;22.20;52.80;;;;;;6083216;23;20386;-85
2022/02/10 11:39:57;;;;;;;;;;;;;;;;;;;;;
2022/02/10 14:16:07;;;;;;;14.60;7.07;;;22.00;53.30;;;;;;5974823;24;20395;-85
2022/02/10 14:25:43;;;;;;;15.53;7.07;;;22.00;53.40;;;;;;5975517;23;20401;-85
2022/02/10 16:17:51;;;;;;;8.43;5.10;;;22.40;53.60;;;;;;6006966;23;20387;-85
2022/02/10 16:20:35;;;;;;;9.43;4.77;;;22.40;53.60;;;;;;6003620;23;20399;-85
2022/02/10 16:23:31;;;;;;;9.67;4.80;;;22.40;53.50;;;;;;6022801;23;20427;-86
2022/02/10 16:30:13;;;;;;;;;;;;;;;;;;;;;
2022/02/10 16:40:08;;;;;;;6.67;3.97;;;22.40;53.30;;;;;;6057686;23;20393;-84
2022/02/10 16:43:21;;;;;;;;;;;;;;;;;;;;;
2022/02/10 16:46:16;;;;;;;8.90;3.67;;;22.40;52.90;;;;;;6125861;23;20373;-85
2022/02/10 16:49:16;;;;;;;7.93;3.77;;;22.40;52.80;;;;;;6101027;23;20412;-85
2022/02/10 16:52:10;;;;;;;4.53;3.00;;;22.40;52.70;;;;;;6115054;23;20382;-85
2022/02/10 17:54:53;;;;;;;;;;;;;;;;;;;;;
2022/02/10 18:19:08;;;;;;;2.70;2.30;;;22.50;52.20;;;;;;5788445;24;20388;-85
2022/02/10 18:28:28;;;;;;;4.03;2.67;;;22.50;52.30;;;;;;5972944;24;20497;-83
2022/02/10 19:06:52;;;;;;;3.80;2.63;;;22.50;52.70;;;;;;5705882;25;20387;-84
2022/02/10 19:09:31;;;;;;;3.70;2.90;;;22.60;52.80;;;;;;5706360;25;20391;-83
2022/02/10 19:12:16;;;;;;;3.70;2.80;;;22.60;52.70;;;;;;5709147;25;20375;-82
2022/02/10 19:14:53;;;;;;;4.27;2.80;;;22.60;52.80;;;;;;5786064;24;20384;-83
2022/02/10 19:17:30;;;;;;;4.20;2.67;;;22.60;52.70;;;;;;5861641;24;20511;-82
2022/02/10 19:19:59;;;;;;;4.63;2.67;;;22.60;52.70;;;;;;5891047;24;20381;-82
2022/02/10 19:22:48;;;;;;;4.90;3.00;;;22.60;52.70;;;;;;5898983;24;20398;-84
2022/02/10 19:28:14;;;;;;;2.90;2.23;;;22.60;52.70;;;;;;5935064;24;20380;-81
2022/02/10 19:31:22;;;;;;;3.80;2.57;;;22.60;52.70;;;;;;6061724;23;20727;-83
2022/02/10 19:33:53;;;;;;;4.90;2.83;;;22.60;52.70;;;;;;6026649;23;20410;-83
2022/02/10 19:36:38;;;;;;;2.80;2.37;;;22.60;52.70;;;;;;6091952;23;20473;-83
2022/02/10 19:39:11;;;;;;;5.67;2.47;;;22.60;52.70;;;;;;6203641;23;20389;-84
2022/02/10 19:41:52;;;;;;;3.77;2.20;;;22.60;52.70;;;;;;6209691;23;20409;-82
2022/02/10 19:44:33;;;;;;;4.17;2.93;;;22.60;52.70;;;;;;6210680;23;20421;-84
2022/02/10 19:47:01;;;;;;;5.77;2.67;;;22.60;52.70;;;;;;6207035;23;20769;-84
2022/02/10 19:49:28;;;;;;;3.67;2.40;;;22.60;52.70;;;;;;6207165;23;20381;-84
2022/02/10 19:51:57;;;;;;;6.80;2.70;;;22.60;52.70;;;;;;6207573;23;20383;-83
2022/02/10 19:54:36;;;;;;;4.47;2.67;;;22.60;52.70;;;;;;6203863;23;20383;-85
2022/02/10 19:57:24;;;;;;;4.03;2.97;;;22.60;52.70;;;;;;6225267;23;20378;-82
2022/02/10 20:00:20;;;;;;;2.53;2.00;;;22.60;52.70;;;;;;6206560;23;20425;-84
2022/02/10 20:09:38;;;;;;;3.57;2.53;;;22.50;52.70;;;;;;6233162;23;20373;-84
2022/02/10 20:12:08;;;;;;;4.67;2.70;;;22.50;52.80;;;;;;6207086;23;20397;-82
2022/02/10 20:15:04;;;;;;;3.47;2.60;;;22.50;52.80;;;;;;6233032;23;20374;-84
2022/02/10 20:17:32;;;;;;;5.93;2.50;;;22.50;52.80;;;;;;6187576;23;20374;-83
2022/02/10 20:19:59;;;;;;;4.33;2.50;;;22.50;52.80;;;;;;6207614;23;20394;-83
2022/02/10 20:22:40;;;;;;;6.27;2.60;;;22.50;52.80;;;;;;6205713;23;20454;-82
2022/02/10 20:25:59;;;;;;;5.20;2.53;;;22.50;52.80;;;;;;6232431;23;20378;-85
2022/02/10 20:31:43;;;;;;;3.20;2.23;;;22.50;52.90;;;;;;6111259;23;20389;-84
2022/02/10 20:48:11;;;;;;;3.70;2.57;;;22.40;52.90;;;;;;6239767;23;20350;-82
2022/02/10 20:57:39;;;;;;;3.93;2.50;;;22.40;52.90;;;;;;6166962;23;20462;-84
2022/02/10 21:00:31;;;;;;;5.00;2.43;;;22.40;53.00;;;;;;6182165;23;20402;-82
2022/02/10 21:03:23;;;;;;;3.23;2.27;;;22.40;53.00;;;;;;6204916;23;20457;-83
2022/02/10 21:12:12;;;;;;;;;;;;;;;;;;;;;
2022/02/10 21:14:55;;;;;;;3.33;2.50;;;22.40;52.90;;;;;;6201736;23;20410;-82
2022/02/10 21:17:39;;;;;;;3.50;2.40;;;22.40;52.90;;;;;;6176051;23;20394;-83
2022/02/10 21:20:37;;;;;;;4.70;2.87;;;22.40;52.90;;;;;;6199025;23;20383;-84
2022/02/10 21:23:27;;;;;;;3.13;2.17;;;22.40;52.90;;;;;;6148018;23;20490;-83
2022/02/10 21:26:21;;;;;;;;;;;;;;;;;;;;;
2022/02/10 21:32:15;;;;;;;2.90;2.40;;;22.40;52.90;;;;;;6230202;23;20377;-84
2022/02/10 21:37:43;;;;;;;6.30;2.77;;;22.40;52.90;;;;;;6230390;23;20357;-84
2022/02/10 22:11:56;;;;;;;2.90;2.00;;;22.30;53.10;;;;;;6231157;23;20651;-83
2022/02/10 22:20:20;;;;;;;3.93;2.33;;;22.30;53.10;;;;;;6242766;23;20393;-82
2022/02/10 22:26:50;;;;;;;2.60;2.10;;;22.30;53.10;;;;;;6122312;23;20396;-83
2022/02/10 22:29:31;;;;;;;2.60;1.80;;;22.30;53.10;;;;;;6089544;23;20373;-84
2022/02/10 22:34:40;;;;;;;3.67;2.53;;;22.30;53.10;;;;;;6111332;23;20389;-83
2022/02/10 22:37:11;;;;;;;2.90;2.50;;;22.30;53.10;;;;;;6087504;23;20461;-83
2022/02/10 22:39:44;;;;;;;3.67;1.70;;;22.30;53.10;;;;;;6088183;23;20406;-83
2022/02/10 22:42:34;;;;;;;3.33;2.30;;;22.30;53.10;;;;;;6084813;23;20397;-83
2022/02/10 22:45:14;;;;;;;3.33;2.20;;;22.30;53.10;;;;;;6064246;23;20505;-83
2022/02/10 22:47:47;;;;;;;1.70;1.60;;;22.30;53.10;;;;;;6085916;23;20385;-84
2022/02/10 22:50:21;;;;;;;2.60;1.87;;;22.30;53.10;;;;;;6085637;23;20478;-84
2022/02/10 22:52:59;;;;;;;2.30;1.70;;;22.30;53.10;;;;;;6085988;23;20409;-83
2022/02/10 22:55:26;;;;;;;2.83;1.80;;;22.30;53.10;;;;;;6108763;23;20461;-83
2022/02/10 22:57:57;;;;;;;2.57;2.37;;;22.30;53.10;;;;;;6086237;23;20463;-83
2022/02/10 23:01:16;;;;;;;2.73;2.27;;;22.30;53.10;;;;;;6086575;23;20850;-83
2022/02/10 23:03:51;;;;;;;4.20;2.40;;;22.30;53.00;;;;;;6178142;23;20410;-83
2022/02/10 23:06:22;;;;;;;2.77;2.40;;;22.30;53.10;;;;;;6230904;23;20370;-83
2022/02/10 23:08:48;;;;;;;3.17;2.47;;;22.30;53.10;;;;;;6230544;23;20386;-82
2022/02/10 23:11:17;;;;;;;2.50;1.80;;;22.30;53.10;;;;;;6229506;23;20378;-83
2022/02/10 23:13:45;;;;;;;3.00;2.70;;;22.30;53.10;;;;;;6230052;23;20390;-83
2022/02/10 23:16:14;;;;;;;3.03;2.37;;;22.30;53.00;;;;;;6229376;23;20453;-84
2022/02/10 23:18:58;;;;;;;2.40;1.83;;;22.30;53.10;;;;;;6229291;23;20457;-83
2022/02/10 23:21:35;;;;;;;2.60;2.07;;;22.30;53.00;;;;;;6229635;23;20382;-83
2022/02/10 23:24:01;;;;;;;2.63;1.70;;;22.30;53.00;;;;;;6228236;23;20422;-83
2022/02/10 23:26:28;;;;;;;2.80;1.90;;;22.30;53.00;;;;;;6229619;23;20388;-83
2022/02/10 23:28:59;;;;;;;2.83;2.00;;;22.30;53.00;;;;;;6230127;23;20929;-83
2022/02/10 23:31:28;;;;;;;2.00;1.70;;;22.30;53.00;;;;;;6231003;23;20386;-83
2022/02/10 23:33:58;;;;;;;2.60;1.80;;;22.30;53.00;;;;;;6231703;23;20382;-84
2022/02/10 23:39:05;;;;;;;2.63;1.87;;;22.30;52.90;;;;;;6244567;23;20732;-83
2022/02/10 23:44:25;;;;;;;3.80;2.00;;;22.30;53.00;;;;;;6233042;23;20433;-82
2022/02/10 23:46:57;;;;;;;2.00;1.80;;;22.30;53.00;;;;;;6237160;23;20351;-82
2022/02/10 23:49:25;;;;;;;2.37;1.70;;;22.30;53.00;;;;;;6237172;23;20375;-82
2022/02/10 23:52:16;;;;;;;2.50;1.70;;;22.30;53.00;;;;;;6227376;23;20376;-82
2022/02/10 23:55:18;;;;;;;2.80;2.07;;;22.20;52.90;;;;;;6218070;23;20378;-82
